Terminal Aerodrome Forecast
Issued by NWS Rapid City, SD

Home | Current Version | Previous Version | Text Only | Print | Product List | Glossary Off
Versions: 1 2 3 4 5 6 7 8 9 10 11 12 13 14

000
FTUS43 KUNR 031720
TAFRAP
TAF
KRAP 031720Z 0318/0418 34010KT P6SM SCT250
     FM032100 31009KT P6SM BKN050
     FM032300 28007KT P6SM BKN080
     FM040800 26009KT P6SM SCT200=

USA.gov is the U.S. government's official web portal to all federal, state and local government web resources and services.